sensor_id;sensor_type;location;lat;lon;timestamp;pressure;altitude;pressure_sealevel;temperature;humidity
54854;BME280;40747;49.480;8.658;2023-06-22T00:01:24;100258.66;;;22.36;88.19
54854;BME280;40747;49.480;8.658;2023-06-22T00:03:50;100253.41;;;22.34;87.43
54854;BME280;40747;49.480;8.658;2023-06-22T00:06:15;100254.91;;;22.38;86.92
54854;BME280;40747;49.480;8.658;2023-06-22T00:08:41;100252.81;;;22.42;87.17
54854;BME280;40747;49.480;8.658;2023-06-22T00:11:06;100250.59;;;22.36;87.95
54854;BME280;40747;49.480;8.658;2023-06-22T00:13:31;100245.25;;;22.36;88.37
54854;BME280;40747;49.480;8.658;2023-06-22T00:15:57;100247.66;;;22.27;87.94
54854;BME280;40747;49.480;8.658;2023-06-22T00:18:22;100255.03;;;22.14;88.50
54854;BME280;40747;49.480;8.658;2023-06-22T00:20:52;100275.59;;;22.25;87.80
54854;BME280;40747;49.480;8.658;2023-06-22T00:23:21;100287.22;;;22.37;87.49
54854;BME280;40747;49.480;8.658;2023-06-22T00:25:49;100288.31;;;22.46;87.09
54854;BME280;40747;49.480;8.658;2023-06-22T00:28:14;100284.13;;;22.53;86.84
54854;BME280;40747;49.480;8.658;2023-06-22T00:30:39;100289.47;;;22.64;85.31
54854;BME280;40747;49.480;8.658;2023-06-22T00:33:05;100303.72;;;22.76;85.90
54854;BME280;40747;49.480;8.658;2023-06-22T00:35:32;100314.22;;;22.79;85.31
54854;BME280;40747;49.480;8.658;2023-06-22T00:37:59;100335.06;;;22.87;87.14
54854;BME280;40747;49.480;8.658;2023-06-22T00:40:31;100338.72;;;22.86;85.92
54854;BME280;40747;49.480;8.658;2023-06-22T00:42:57;100369.03;;;22.65;86.85
54854;BME280;40747;49.480;8.658;2023-06-22T00:45:26;100393.00;;;22.46;88.05
54854;BME280;40747;49.480;8.658;2023-06-22T00:47:57;100452.00;;;22.57;87.69
54854;BME280;40747;49.480;8.658;2023-06-22T00:50:25;100520.84;;;22.69;88.38
54854;BME280;40747;49.480;8.658;2023-06-22T00:52:53;100583.22;;;22.73;87.38
54854;BME280;40747;49.480;8.658;2023-06-22T00:55:20;100620.63;;;22.52;89.44
54854;BME280;40747;49.480;8.658;2023-06-22T00:57:46;100633.84;;;22.55;87.55
54854;BME280;40747;49.480;8.658;2023-06-22T01:00:13;100617.22;;;22.50;87.79
54854;BME280;40747;49.480;8.658;2023-06-22T01:02:40;100554.03;;;22.46;90.22
54854;BME280;40747;49.480;8.658;2023-06-22T01:05:06;100450.78;;;21.91;98.65
54854;BME280;40747;49.480;8.658;2023-06-22T01:07:35;100367.06;;;20.79;100.00
54854;BME280;40747;49.480;8.658;2023-06-22T01:12:36;100136.66;;;20.10;100.00
54854;BME280;40747;49.480;8.658;2023-06-22T01:15:11;100098.78;;;19.92;100.00
54854;BME280;40747;49.480;8.658;2023-06-22T01:17:41;100156.38;;;19.96;100.00
54854;BME280;40747;49.480;8.658;2023-06-22T01:20:09;100228.59;;;20.20;100.00
54854;BME280;40747;49.480;8.658;2023-06-22T01:25:23;100291.25;;;20.42;100.00
54854;BME280;40747;49.480;8.658;2023-06-22T01:30:43;100308.69;;;20.48;100.00
54854;BME280;40747;49.480;8.658;2023-06-22T01:33:11;100323.44;;;20.53;100.00
54854;BME280;40747;49.480;8.658;2023-06-22T01:35:38;100320.81;;;20.77;100.00
54854;BME280;40747;49.480;8.658;2023-06-22T01:38:05;100312.22;;;20.85;100.00
54854;BME280;40747;49.480;8.658;2023-06-22T01:40:33;100328.72;;;21.03;100.00
54854;BME280;40747;49.480;8.658;2023-06-22T01:43:00;100326.44;;;21.10;100.00
54854;BME280;40747;49.480;8.658;2023-06-22T01:45:27;100338.72;;;21.01;100.00
54854;BME280;40747;49.480;8.658;2023-06-22T01:47:53;100346.28;;;21.07;100.00
54854;BME280;40747;49.480;8.658;2023-06-22T01:50:19;100354.88;;;21.00;100.00
54854;BME280;40747;49.480;8.658;2023-06-22T01:52:44;100345.56;;;21.05;100.00
54854;BME280;40747;49.480;8.658;2023-06-22T01:55:10;100340.97;;;21.19;100.00
54854;BME280;40747;49.480;8.658;2023-06-22T01:57:35;100333.69;;;21.21;100.00
54854;BME280;40747;49.480;8.658;2023-06-22T02:00:03;100334.31;;;21.00;100.00
54854;BME280;40747;49.480;8.658;2023-06-22T02:02:38;100329.19;;;20.97;100.00
54854;BME280;40747;49.480;8.658;2023-06-22T02:05:08;100330.25;;;21.19;100.00
54854;BME280;40747;49.480;8.658;2023-06-22T02:07:41;100342.97;;;21.28;100.00
54854;BME280;40747;49.480;8.658;2023-06-22T02:10:09;100345.59;;;21.17;100.00
54854;BME280;40747;49.480;8.658;2023-06-22T02:12:38;100340.25;;;20.92;100.00
54854;BME280;40747;49.480;8.658;2023-06-22T02:15:04;100340.31;;;20.79;100.00
54854;BME280;40747;49.480;8.658;2023-06-22T02:17:30;100342.75;;;20.83;100.00
54854;BME280;40747;49.480;8.658;2023-06-22T02:19:58;100336.56;;;20.82;100.00
54854;BME280;40747;49.480;8.658;2023-06-22T02:22:23;100344.78;;;20.79;100.00
54854;BME280;40747;49.480;8.658;2023-06-22T02:24:49;100338.94;;;20.61;100.00
54854;BME280;40747;49.480;8.658;2023-06-22T02:27:14;100331.16;;;20.45;100.00
54854;BME280;40747;49.480;8.658;2023-06-22T02:29:40;100314.88;;;20.48;100.00
54854;BME280;40747;49.480;8.658;2023-06-22T02:32:05;100321.31;;;20.45;100.00
54854;BME280;40747;49.480;8.658;2023-06-22T02:34:31;100312.31;;;20.46;100.00
54854;BME280;40747;49.480;8.658;2023-06-22T02:36:58;100312.75;;;20.40;100.00
54854;BME280;40747;49.480;8.658;2023-06-22T02:39:26;100304.97;;;20.37;100.00
54854;BME280;40747;49.480;8.658;2023-06-22T02:41:53;100313.31;;;20.33;100.00
54854;BME280;40747;49.480;8.658;2023-06-22T02:44:20;100322.19;;;20.33;100.00
54854;BME280;40747;49.480;8.658;2023-06-22T02:46:47;100313.84;;;20.38;100.00
54854;BME280;40747;49.480;8.658;2023-06-22T02:49:12;100299.09;;;20.19;100.00
54854;BME280;40747;49.480;8.658;2023-06-22T02:51:42;100299.34;;;20.16;100.00
54854;BME280;40747;49.480;8.658;2023-06-22T02:54:07;100291.44;;;20.14;100.00
54854;BME280;40747;49.480;8.658;2023-06-22T02:56:32;100292.06;;;20.18;100.00
54854;BME280;40747;49.480;8.658;2023-06-22T02:58:58;100287.88;;;20.14;100.00
54854;BME280;40747;49.480;8.658;2023-06-22T03:01:29;100280.94;;;20.11;100.00
54854;BME280;40747;49.480;8.658;2023-06-22T03:03:56;100272.09;;;19.98;100.00
54854;BME280;40747;49.480;8.658;2023-06-22T03:06:21;100287.25;;;20.10;100.00
54854;BME280;40747;49.480;8.658;2023-06-22T03:09:00;100280.84;;;20.13;100.00
54854;BME280;40747;49.480;8.658;2023-06-22T03:11:26;100274.63;;;20.12;100.00
54854;BME280;40747;49.480;8.658;2023-06-22T03:13:51;100273.97;;;20.09;100.00
54854;BME280;40747;49.480;8.658;2023-06-22T03:16:18;100281.81;;;19.99;100.00
54854;BME280;40747;49.480;8.658;2023-06-22T03:18:43;100281.81;;;20.12;100.00
54854;BME280;40747;49.480;8.658;2023-06-22T03:21:09;100287.44;;;20.20;100.00
54854;BME280;40747;49.480;8.658;2023-06-22T03:23:34;100287.47;;;20.07;100.00
54854;BME280;40747;49.480;8.658;2023-06-22T03:25:59;100274.75;;;20.11;100.00
54854;BME280;40747;49.480;8.658;2023-06-22T03:28:24;100264.66;;;20.27;100.00
54854;BME280;40747;49.480;8.658;2023-06-22T03:30:50;100258.94;;;20.45;100.00
54854;BME280;40747;49.480;8.658;2023-06-22T03:33:18;100261.25;;;20.50;100.00
54854;BME280;40747;49.480;8.658;2023-06-22T03:35:43;100264.44;;;20.55;100.00
54854;BME280;40747;49.480;8.658;2023-06-22T03:38:08;100269.28;;;20.50;100.00
54854;BME280;40747;49.480;8.658;2023-06-22T03:40:34;100272.44;;;20.30;100.00
54854;BME280;40747;49.480;8.658;2023-06-22T03:42:59;100269.59;;;20.21;100.00
54854;BME280;40747;49.480;8.658;2023-06-22T03:45:24;100273.22;;;20.20;100.00
54854;BME280;40747;49.480;8.658;2023-06-22T03:47:50;100277.19;;;20.27;100.00
54854;BME280;40747;49.480;8.658;2023-06-22T03:50:15;100275.06;;;20.43;100.00
54854;BME280;40747;49.480;8.658;2023-06-22T03:52:40;100274.19;;;20.56;100.00
54854;BME280;40747;49.480;8.658;2023-06-22T03:55:07;100280.06;;;20.61;100.00
54854;BME280;40747;49.480;8.658;2023-06-22T03:57:33;100273.34;;;20.55;100.00
54854;BME280;40747;49.480;8.658;2023-06-22T03:59:58;100270.78;;;20.54;100.00
54854;BME280;40747;49.480;8.658;2023-06-22T04:02:24;100282.56;;;20.51;100.00
54854;BME280;40747;49.480;8.658;2023-06-22T04:04:49;100290.41;;;20.41;100.00
54854;BME280;40747;49.480;8.658;2023-06-22T04:07:15;100277.53;;;20.46;100.00
54854;BME280;40747;49.480;8.658;2023-06-22T04:09:40;100269.56;;;20.34;100.00
54854;BME280;40747;49.480;8.658;2023-06-22T04:12:05;100266.31;;;20.41;100.00
54854;BME280;40747;49.480;8.658;2023-06-22T04:14:31;100269.78;;;20.55;100.00
54854;BME280;40747;49.480;8.658;2023-06-22T04:16:57;100274.78;;;20.72;100.00
54854;BME280;40747;49.480;8.658;2023-06-22T04:19:23;100275.66;;;20.60;100.00
54854;BME280;40747;49.480;8.658;2023-06-22T04:21:48;100273.09;;;20.71;100.00
54854;BME280;40747;49.480;8.658;2023-06-22T04:24:14;100259.38;;;20.76;100.00
54854;BME280;40747;49.480;8.658;2023-06-22T04:26:40;100260.66;;;20.70;100.00
54854;BME280;40747;49.480;8.658;2023-06-22T04:29:07;100256.53;;;20.53;100.00
54854;BME280;40747;49.480;8.658;2023-06-22T04:31:34;100246.97;;;20.62;100.00
54854;BME280;40747;49.480;8.658;2023-06-22T04:34:05;100242.75;;;20.46;100.00
54854;BME280;40747;49.480;8.658;2023-06-22T04:36:35;100255.31;;;20.70;100.00
54854;BME280;40747;49.480;8.658;2023-06-22T04:39:05;100250.84;;;20.58;100.00
54854;BME280;40747;49.480;8.658;2023-06-22T04:41:31;100241.94;;;20.70;100.00
54854;BME280;40747;49.480;8.658;2023-06-22T04:44:11;100249.91;;;20.59;100.00
54854;BME280;40747;49.480;8.658;2023-06-22T04:46:37;100247.78;;;20.51;100.00
54854;BME280;40747;49.480;8.658;2023-06-22T04:49:09;100256.81;;;20.74;100.00
54854;BME280;40747;49.480;8.658;2023-06-22T04:51:44;100255.22;;;20.72;100.00
54854;BME280;40747;49.480;8.658;2023-06-22T04:54:09;100257.03;;;20.71;100.00
54854;BME280;40747;49.480;8.658;2023-06-22T04:56:35;100253.53;;;20.58;100.00
54854;BME280;40747;49.480;8.658;2023-06-22T04:59:01;100259.00;;;20.81;100.00
54854;BME280;40747;49.480;8.658;2023-06-22T05:01:28;100258.44;;;20.64;100.00
54854;BME280;40747;49.480;8.658;2023-06-22T05:03:53;100244.50;;;20.72;100.00
54854;BME280;40747;49.480;8.658;2023-06-22T05:06:22;100225.75;;;20.96;100.00
54854;BME280;40747;49.480;8.658;2023-06-22T05:08:54;100220.09;;;20.88;100.00
54854;BME280;40747;49.480;8.658;2023-06-22T05:11:26;100220.41;;;21.07;100.00
54854;BME280;40747;49.480;8.658;2023-06-22T05:13:51;100206.75;;;20.99;100.00
54854;BME280;40747;49.480;8.658;2023-06-22T05:16:16;100218.38;;;21.22;100.00
54854;BME280;40747;49.480;8.658;2023-06-22T05:18:42;100222.81;;;21.46;100.00
54854;BME280;40747;49.480;8.658;2023-06-22T05:21:08;100207.88;;;21.55;100.00
54854;BME280;40747;49.480;8.658;2023-06-22T05:23:33;100211.28;;;21.57;100.00
54854;BME280;40747;49.480;8.658;2023-06-22T05:25:59;100216.09;;;21.40;100.00
54854;BME280;40747;49.480;8.658;2023-06-22T05:28:24;100216.09;;;21.40;100.00
54854;BME280;40747;49.480;8.658;2023-06-22T05:30:49;100215.59;;;21.24;100.00
54854;BME280;40747;49.480;8.658;2023-06-22T05:33:15;100207.44;;;21.37;100.00
54854;BME280;40747;49.480;8.658;2023-06-22T05:35:40;100200.91;;;21.64;100.00
54854;BME280;40747;49.480;8.658;2023-06-22T05:38:06;100200.09;;;21.74;100.00
54854;BME280;40747;49.480;8.658;2023-06-22T05:40:31;100206.19;;;21.76;100.00
54854;BME280;40747;49.480;8.658;2023-06-22T05:42:57;100195.81;;;21.72;100.00
54854;BME280;40747;49.480;8.658;2023-06-22T05:45:22;100193.50;;;21.90;100.00
54854;BME280;40747;49.480;8.658;2023-06-22T05:47:48;100196.28;;;22.00;100.00
54854;BME280;40747;49.480;8.658;2023-06-22T05:50:13;100204.41;;;22.21;100.00
54854;BME280;40747;49.480;8.658;2023-06-22T05:52:38;100204.66;;;22.29;100.00
54854;BME280;40747;49.480;8.658;2023-06-22T05:55:04;100205.13;;;22.46;100.00
54854;BME280;40747;49.480;8.658;2023-06-22T05:57:29;100198.84;;;22.56;99.99
54854;BME280;40747;49.480;8.658;2023-06-22T05:59:55;100187.75;;;22.61;97.96
54854;BME280;40747;49.480;8.658;2023-06-22T06:02:20;100191.13;;;22.63;94.62
54854;BME280;40747;49.480;8.658;2023-06-22T06:04:46;100199.22;;;22.84;95.68
54854;BME280;40747;49.480;8.658;2023-06-22T06:07:11;100188.19;;;23.20;93.15
54854;BME280;40747;49.480;8.658;2023-06-22T06:09:36;100187.38;;;23.08;92.58
54854;BME280;40747;49.480;8.658;2023-06-22T06:12:02;100198.59;;;23.34;92.00
54854;BME280;40747;49.480;8.658;2023-06-22T06:14:28;100189.19;;;23.50;92.61
54854;BME280;40747;49.480;8.658;2023-06-22T06:16:53;100176.88;;;23.47;89.20
54854;BME280;40747;49.480;8.658;2023-06-22T06:19:19;100176.03;;;23.47;86.33
54854;BME280;40747;49.480;8.658;2023-06-22T06:21:44;100200.78;;;23.50;86.35
54854;BME280;40747;49.480;8.658;2023-06-22T06:24:09;100205.59;;;23.78;87.07
54854;BME280;40747;49.480;8.658;2023-06-22T06:26:35;100205.44;;;24.00;85.35
54854;BME280;40747;49.480;8.658;2023-06-22T06:29:01;100197.19;;;23.92;85.64
54854;BME280;40747;49.480;8.658;2023-06-22T06:31:27;100178.78;;;23.97;85.01
54854;BME280;40747;49.480;8.658;2023-06-22T06:33:54;100175.59;;;23.82;85.57
54854;BME280;40747;49.480;8.658;2023-06-22T06:36:19;100184.09;;;23.87;86.40
54854;BME280;40747;49.480;8.658;2023-06-22T06:38:45;100176.31;;;23.84;86.96
54854;BME280;40747;49.480;8.658;2023-06-22T06:41:12;100176.72;;;24.11;87.58
54854;BME280;40747;49.480;8.658;2023-06-22T06:43:38;100174.31;;;24.17;86.58
54854;BME280;40747;49.480;8.658;2023-06-22T06:46:03;100176.13;;;24.17;86.50
54854;BME280;40747;49.480;8.658;2023-06-22T06:48:28;100177.72;;;24.49;86.19
54854;BME280;40747;49.480;8.658;2023-06-22T06:50:54;100176.91;;;24.68;84.59
54854;BME280;40747;49.480;8.658;2023-06-22T06:53:19;100177.91;;;24.77;83.82
54854;BME280;40747;49.480;8.658;2023-06-22T06:55:45;100180.31;;;24.80;81.89
54854;BME280;40747;49.480;8.658;2023-06-22T06:58:10;100173.19;;;25.08;81.10
54854;BME280;40747;49.480;8.658;2023-06-22T07:00:38;100160.78;;;25.25;80.03
54854;BME280;40747;49.480;8.658;2023-06-22T07:03:04;100165.28;;;25.54;80.63
54854;BME280;40747;49.480;8.658;2023-06-22T07:05:29;100159.59;;;25.85;80.14
54854;BME280;40747;49.480;8.658;2023-06-22T07:07:55;100158.94;;;25.73;75.40
54854;BME280;40747;49.480;8.658;2023-06-22T07:10:20;100154.97;;;26.05;79.14
54854;BME280;40747;49.480;8.658;2023-06-22T07:12:46;100156.22;;;26.29;73.65
54854;BME280;40747;49.480;8.658;2023-06-22T07:15:11;100153.44;;;26.39;73.77
54854;BME280;40747;49.480;8.658;2023-06-22T07:17:38;100141.47;;;26.59;76.89
54854;BME280;40747;49.480;8.658;2023-06-22T07:20:06;100137.78;;;26.78;74.62
54854;BME280;40747;49.480;8.658;2023-06-22T07:22:36;100145.47;;;27.18;73.48
54854;BME280;40747;49.480;8.658;2023-06-22T07:25:02;100124.59;;;27.28;72.46
54854;BME280;40747;49.480;8.658;2023-06-22T07:27:34;100121.75;;;27.38;70.72
54854;BME280;40747;49.480;8.658;2023-06-22T07:30:02;100119.91;;;27.81;69.93
54854;BME280;40747;49.480;8.658;2023-06-22T07:32:27;100131.59;;;28.33;68.17
54854;BME280;40747;49.480;8.658;2023-06-22T07:34:54;100130.09;;;28.71;66.68
54854;BME280;40747;49.480;8.658;2023-06-22T07:37:19;100120.91;;;28.89;66.77
54854;BME280;40747;49.480;8.658;2023-06-22T07:39:44;100126.63;;;29.19;64.87
54854;BME280;40747;49.480;8.658;2023-06-22T07:42:10;100131.22;;;29.10;66.43
54854;BME280;40747;49.480;8.658;2023-06-22T07:44:35;100145.47;;;28.96;65.73
54854;BME280;40747;49.480;8.658;2023-06-22T07:47:01;100139.81;;;29.38;63.79
54854;BME280;40747;49.480;8.658;2023-06-22T07:49:27;100141.56;;;29.71;64.79
54854;BME280;40747;49.480;8.658;2023-06-22T07:51:53;100140.81;;;29.85;62.15
54854;BME280;40747;49.480;8.658;2023-06-22T07:54:18;100150.09;;;29.99;62.26
54854;BME280;40747;49.480;8.658;2023-06-22T07:56:43;100163.81;;;30.06;62.78
54854;BME280;40747;49.480;8.658;2023-06-22T07:59:08;100138.94;;;30.17;62.17
54854;BME280;40747;49.480;8.658;2023-06-22T08:01:34;100137.31;;;30.08;61.18
54854;BME280;40747;49.480;8.658;2023-06-22T08:03:59;100160.34;;;29.81;62.04
54854;BME280;40747;49.480;8.658;2023-06-22T08:06:25;100168.16;;;30.15;60.72
54854;BME280;40747;49.480;8.658;2023-06-22T08:08:50;100137.03;;;29.95;60.72
54854;BME280;40747;49.480;8.658;2023-06-22T08:11:17;100108.22;;;30.40;62.39
54854;BME280;40747;49.480;8.658;2023-06-22T08:13:43;100121.47;;;30.12;61.05
54854;BME280;40747;49.480;8.658;2023-06-22T08:16:08;100133.94;;;30.06;60.77
54854;BME280;40747;49.480;8.658;2023-06-22T08:18:33;100130.38;;;30.29;59.37
54854;BME280;40747;49.480;8.658;2023-06-22T08:20:59;100116.28;;;30.56;58.29
54854;BME280;40747;49.480;8.658;2023-06-22T08:23:24;100118.38;;;30.46;58.47
54854;BME280;40747;49.480;8.658;2023-06-22T08:25:50;100135.19;;;30.88;58.77
54854;BME280;40747;49.480;8.658;2023-06-22T08:28:15;100143.09;;;30.60;58.95
54854;BME280;40747;49.480;8.658;2023-06-22T08:30:41;100134.22;;;30.11;59.41
54854;BME280;40747;49.480;8.658;2023-06-22T08:33:06;100126.16;;;30.26;58.51
54854;BME280;40747;49.480;8.658;2023-06-22T08:35:31;100108.69;;;30.20;59.90
54854;BME280;40747;49.480;8.658;2023-06-22T08:37:57;100106.78;;;30.52;58.50
54854;BME280;40747;49.480;8.658;2023-06-22T08:40:23;100115.00;;;31.05;58.05
54854;BME280;40747;49.480;8.658;2023-06-22T08:42:49;100118.94;;;31.18;56.91
54854;BME280;40747;49.480;8.658;2023-06-22T08:45:15;100120.81;;;31.17;56.51
54854;BME280;40747;49.480;8.658;2023-06-22T08:47:41;100106.13;;;30.88;56.68
54854;BME280;40747;49.480;8.658;2023-06-22T08:50:10;100099.53;;;30.83;56.65
54854;BME280;40747;49.480;8.658;2023-06-22T08:52:37;100110.78;;;31.18;56.08
54854;BME280;40747;49.480;8.658;2023-06-22T08:55:03;100109.69;;;31.79;55.88
54854;BME280;40747;49.480;8.658;2023-06-22T08:57:28;100105.63;;;32.26;54.83
54854;BME280;40747;49.480;8.658;2023-06-22T08:59:55;100100.44;;;33.10;55.16
54854;BME280;40747;49.480;8.658;2023-06-22T09:02:23;100093.16;;;33.65;52.86
54854;BME280;40747;49.480;8.658;2023-06-22T09:04:49;100092.69;;;34.17;49.65
54854;BME280;40747;49.480;8.658;2023-06-22T09:07:20;100099.00;;;34.31;48.79
54854;BME280;40747;49.480;8.658;2023-06-22T09:09:47;100104.53;;;34.38;51.39
54854;BME280;40747;49.480;8.658;2023-06-22T09:12:12;100098.00;;;34.86;51.04
54854;BME280;40747;49.480;8.658;2023-06-22T09:14:38;100107.88;;;34.73;49.23
54854;BME280;40747;49.480;8.658;2023-06-22T09:17:03;100119.44;;;34.55;50.85
54854;BME280;40747;49.480;8.658;2023-06-22T09:19:29;100117.34;;;34.57;49.92
54854;BME280;40747;49.480;8.658;2023-06-22T09:21:54;100111.47;;;34.54;49.95
54854;BME280;40747;49.480;8.658;2023-06-22T09:24:19;100101.56;;;34.39;49.49
54854;BME280;40747;49.480;8.658;2023-06-22T09:26:45;100100.94;;;34.37;51.04
54854;BME280;40747;49.480;8.658;2023-06-22T09:29:10;100086.41;;;34.30;49.23
54854;BME280;40747;49.480;8.658;2023-06-22T09:31:35;100085.78;;;34.75;50.61
54854;BME280;40747;49.480;8.658;2023-06-22T09:34:01;100073.75;;;34.16;49.75
54854;BME280;40747;49.480;8.658;2023-06-22T09:36:26;100060.94;;;34.23;49.82
54854;BME280;40747;49.480;8.658;2023-06-22T09:38:51;100064.34;;;34.65;49.35
54854;BME280;40747;49.480;8.658;2023-06-22T09:41:21;100054.63;;;34.96;47.47
54854;BME280;40747;49.480;8.658;2023-06-22T09:43:46;100052.97;;;34.88;47.22
54854;BME280;40747;49.480;8.658;2023-06-22T09:46:15;100047.75;;;35.46;47.44
54854;BME280;40747;49.480;8.658;2023-06-22T09:48:40;100036.97;;;35.89;47.30
54854;BME280;40747;49.480;8.658;2023-06-22T09:51:05;100032.03;;;36.30;45.49
54854;BME280;40747;49.480;8.658;2023-06-22T09:53:31;100022.50;;;36.07;45.91
54854;BME280;40747;49.480;8.658;2023-06-22T09:55:56;100020.41;;;36.35;44.89
54854;BME280;40747;49.480;8.658;2023-06-22T09:58:22;100010.66;;;36.64;45.45
54854;BME280;40747;49.480;8.658;2023-06-22T10:00:47;100009.81;;;36.64;44.73
54854;BME280;40747;49.480;8.658;2023-06-22T10:03:13;100004.38;;;36.38;45.08
54854;BME280;40747;49.480;8.658;2023-06-22T10:05:38;100006.84;;;35.89;46.11
54854;BME280;40747;49.480;8.658;2023-06-22T10:08:03;100004.00;;;36.53;45.52
54854;BME280;40747;49.480;8.658;2023-06-22T10:10:29;99995.25;;;36.82;45.25
54854;BME280;40747;49.480;8.658;2023-06-22T10:12:56;100007.09;;;36.82;44.87
54854;BME280;40747;49.480;8.658;2023-06-22T10:15:22;100019.94;;;36.82;44.70
54854;BME280;40747;49.480;8.658;2023-06-22T10:17:47;100006.03;;;36.83;45.11
54854;BME280;40747;49.480;8.658;2023-06-22T10:20:13;100003.50;;;36.38;45.86
54854;BME280;40747;49.480;8.658;2023-06-22T10:22:43;99993.06;;;35.96;46.33
54854;BME280;40747;49.480;8.658;2023-06-22T10:25:10;99995.53;;;35.34;46.84
54854;BME280;40747;49.480;8.658;2023-06-22T10:27:35;99995.31;;;34.76;49.96
54854;BME280;40747;49.480;8.658;2023-06-22T10:30:01;99992.81;;;34.55;48.75
54854;BME280;40747;49.480;8.658;2023-06-22T10:32:26;99986.88;;;34.78;48.91
54854;BME280;40747;49.480;8.658;2023-06-22T10:34:53;99982.88;;;34.87;47.75
54854;BME280;40747;49.480;8.658;2023-06-22T10:37:19;99973.22;;;34.71;48.35
54854;BME280;40747;49.480;8.658;2023-06-22T10:39:44;99975.59;;;34.47;48.54
54854;BME280;40747;49.480;8.658;2023-06-22T10:42:09;99981.09;;;34.34;49.36
54854;BME280;40747;49.480;8.658;2023-06-22T10:44:35;99963.81;;;34.27;50.01
54854;BME280;40747;49.480;8.658;2023-06-22T10:47:00;99953.53;;;34.09;50.11
54854;BME280;40747;49.480;8.658;2023-06-22T10:49:25;99957.47;;;33.79;50.60
54854;BME280;40747;49.480;8.658;2023-06-22T10:51:50;99966.75;;;34.05;51.28
54854;BME280;40747;49.480;8.658;2023-06-22T10:54:16;99956.25;;;34.29;50.53
54854;BME280;40747;49.480;8.658;2023-06-22T10:56:43;99958.75;;;34.30;50.76
54854;BME280;40747;49.480;8.658;2023-06-22T10:59:09;99954.53;;;34.55;50.71
54854;BME280;40747;49.480;8.658;2023-06-22T11:01:34;99949.03;;;34.68;50.61
54854;BME280;40747;49.480;8.658;2023-06-22T11:03:59;99954.38;;;35.08;49.70
54854;BME280;40747;49.480;8.658;2023-06-22T11:06:25;99957.63;;;35.37;48.24
54854;BME280;40747;49.480;8.658;2023-06-22T11:08:50;99947.47;;;35.44;49.78
54854;BME280;40747;49.480;8.658;2023-06-22T11:11:15;99944.50;;;35.53;49.51
54854;BME280;40747;49.480;8.658;2023-06-22T11:13:43;99951.34;;;35.30;50.82
54854;BME280;40747;49.480;8.658;2023-06-22T11:16:09;99932.22;;;35.17;49.56
54854;BME280;40747;49.480;8.658;2023-06-22T11:18:34;99934.03;;;35.30;47.50
54854;BME280;40747;49.480;8.658;2023-06-22T11:21:00;99930.59;;;35.80;46.75
54854;BME280;40747;49.480;8.658;2023-06-22T11:23:25;99937.44;;;35.96;48.21
54854;BME280;40747;49.480;8.658;2023-06-22T11:25:52;99925.72;;;36.32;47.47
54854;BME280;40747;49.480;8.658;2023-06-22T11:28:17;99913.94;;;35.81;48.20
54854;BME280;40747;49.480;8.658;2023-06-22T11:30:43;99919.41;;;35.17;49.48
54854;BME280;40747;49.480;8.658;2023-06-22T11:33:08;99923.75;;;35.64;49.09
54854;BME280;40747;49.480;8.658;2023-06-22T11:35:33;99921.50;;;35.54;48.08
54854;BME280;40747;49.480;8.658;2023-06-22T11:37:59;99923.28;;;35.41;48.86
54854;BME280;40747;49.480;8.658;2023-06-22T11:40:24;99924.06;;;35.10;48.11
54854;BME280;40747;49.480;8.658;2023-06-22T11:42:49;99919.22;;;35.05;47.72
54854;BME280;40747;49.480;8.658;2023-06-22T11:45:14;99915.41;;;35.52;46.71
54854;BME280;40747;49.480;8.658;2023-06-22T11:47:40;99918.56;;;35.81;47.53
54854;BME280;40747;49.480;8.658;2023-06-22T11:50:06;99913.69;;;35.83;46.43
54854;BME280;40747;49.480;8.658;2023-06-22T11:52:32;99921.28;;;35.81;46.21
54854;BME280;40747;49.480;8.658;2023-06-22T11:54:58;99911.88;;;36.02;45.68
54854;BME280;40747;49.480;8.658;2023-06-22T11:57:24;99920.31;;;35.75;45.40
54854;BME280;40747;49.480;8.658;2023-06-22T11:59:49;99916.72;;;35.74;46.24
54854;BME280;40747;49.480;8.658;2023-06-22T12:02:15;99914.19;;;35.73;45.92
54854;BME280;40747;49.480;8.658;2023-06-22T12:04:40;99909.63;;;35.28;47.03
54854;BME280;40747;49.480;8.658;2023-06-22T12:07:06;99909.38;;;34.98;47.41
54854;BME280;40747;49.480;8.658;2023-06-22T12:09:31;99908.03;;;35.14;48.31
54854;BME280;40747;49.480;8.658;2023-06-22T12:11:56;99906.19;;;35.07;48.00
54854;BME280;40747;49.480;8.658;2023-06-22T12:14:21;99905.13;;;35.08;47.58
54854;BME280;40747;49.480;8.658;2023-06-22T12:16:47;99918.53;;;35.17;46.83
54854;BME280;40747;49.480;8.658;2023-06-22T12:19:12;99911.44;;;34.43;48.50
54854;BME280;40747;49.480;8.658;2023-06-22T12:21:38;99923.47;;;34.36;50.30
54854;BME280;40747;49.480;8.658;2023-06-22T12:24:03;99915.41;;;34.61;48.29
54854;BME280;40747;49.480;8.658;2023-06-22T12:26:28;99914.50;;;34.74;48.46
54854;BME280;40747;49.480;8.658;2023-06-22T12:28:54;99914.66;;;34.13;48.77
54854;BME280;40747;49.480;8.658;2023-06-22T12:31:19;99918.19;;;33.74;49.42
54854;BME280;40747;49.480;8.658;2023-06-22T12:33:44;99924.09;;;34.04;48.61
54854;BME280;40747;49.480;8.658;2023-06-22T12:36:10;99920.91;;;34.41;48.80
54854;BME280;40747;49.480;8.658;2023-06-22T12:38:35;99913.47;;;34.68;47.95
54854;BME280;40747;49.480;8.658;2023-06-22T12:41:00;99916.19;;;34.75;49.17
54854;BME280;40747;49.480;8.658;2023-06-22T12:43:26;99910.69;;;34.88;48.67
54854;BME280;40747;49.480;8.658;2023-06-22T12:45:51;99923.28;;;34.96;47.01
54854;BME280;40747;49.480;8.658;2023-06-22T12:48:16;99920.31;;;35.04;46.65
54854;BME280;40747;49.480;8.658;2023-06-22T12:50:42;99919.19;;;35.19;48.18